sensor_id;sensor_type;location;lat;lon;timestamp;P1;durP1;ratioP1;P2;durP2;ratioP2
23519;SDS011;11936;50.820;4.336;2023-04-24T00:01:28;16.48;;;9.48;;
23519;SDS011;11936;50.820;4.336;2023-04-24T00:03:54;17.65;;;10.27;;
23519;SDS011;11936;50.820;4.336;2023-04-24T00:06:24;19.90;;;10.10;;
23519;SDS011;11936;50.820;4.336;2023-04-24T00:08:59;15.77;;;9.30;;
23519;SDS011;11936;50.820;4.336;2023-04-24T00:11:26;15.68;;;11.02;;
23519;SDS011;11936;50.820;4.336;2023-04-24T00:13:52;15.07;;;9.82;;
23519;SDS011;11936;50.820;4.336;2023-04-24T00:16:18;22.33;;;10.23;;
23519;SDS011;11936;50.820;4.336;2023-04-24T00:18:44;25.77;;;10.32;;
23519;SDS011;11936;50.820;4.336;2023-04-24T00:21:10;17.33;;;10.20;;
23519;SDS011;11936;50.820;4.336;2023-04-24T00:23:36;19.13;;;10.55;;
23519;SDS011;11936;50.820;4.336;2023-04-24T00:26:02;17.38;;;10.07;;
23519;SDS011;11936;50.820;4.336;2023-04-24T00:28:27;16.75;;;10.10;;
23519;SDS011;11936;50.820;4.336;2023-04-24T00:30:53;17.92;;;10.00;;
23519;SDS011;11936;50.820;4.336;2023-04-24T00:33:19;17.65;;;9.98;;
23519;SDS011;11936;50.820;4.336;2023-04-24T00:35:45;18.50;;;9.93;;
23519;SDS011;11936;50.820;4.336;2023-04-24T00:38:11;18.25;;;9.88;;
23519;SDS011;11936;50.820;4.336;2023-04-24T00:40:36;21.73;;;10.23;;
23519;SDS011;11936;50.820;4.336;2023-04-24T00:43:02;18.35;;;10.00;;
23519;SDS011;11936;50.820;4.336;2023-04-24T00:45:28;19.17;;;10.38;;
23519;SDS011;11936;50.820;4.336;2023-04-24T00:47:56;27.65;;;10.68;;
23519;SDS011;11936;50.820;4.336;2023-04-24T00:50:22;19.98;;;9.32;;
23519;SDS011;11936;50.820;4.336;2023-04-24T00:52:49;17.20;;;9.75;;
23519;SDS011;11936;50.820;4.336;2023-04-24T00:55:14;19.23;;;10.23;;
23519;SDS011;11936;50.820;4.336;2023-04-24T00:57:41;16.40;;;9.60;;
23519;SDS011;11936;50.820;4.336;2023-04-24T01:00:06;17.83;;;9.82;;
23519;SDS011;11936;50.820;4.336;2023-04-24T01:02:37;20.95;;;9.73;;
23519;SDS011;11936;50.820;4.336;2023-04-24T01:05:10;19.42;;;11.40;;
23519;SDS011;11936;50.820;4.336;2023-04-24T01:07:37;20.85;;;9.95;;
23519;SDS011;11936;50.820;4.336;2023-04-24T01:10:05;25.75;;;11.73;;
23519;SDS011;11936;50.820;4.336;2023-04-24T01:12:32;13.50;;;10.10;;
23519;SDS011;11936;50.820;4.336;2023-04-24T01:14:58;20.13;;;9.88;;
23519;SDS011;11936;50.820;4.336;2023-04-24T01:17:24;17.42;;;9.38;;
23519;SDS011;11936;50.820;4.336;2023-04-24T01:19:50;19.58;;;10.77;;
23519;SDS011;11936;50.820;4.336;2023-04-24T01:22:18;17.17;;;10.00;;
23519;SDS011;11936;50.820;4.336;2023-04-24T01:24:45;16.58;;;9.60;;
23519;SDS011;11936;50.820;4.336;2023-04-24T01:27:11;14.05;;;9.25;;
23519;SDS011;11936;50.820;4.336;2023-04-24T01:29:37;13.70;;;9.52;;
23519;SDS011;11936;50.820;4.336;2023-04-24T01:32:03;12.52;;;8.45;;
23519;SDS011;11936;50.820;4.336;2023-04-24T01:34:30;14.82;;;8.80;;
23519;SDS011;11936;50.820;4.336;2023-04-24T01:36:56;15.90;;;9.95;;
23519;SDS011;11936;50.820;4.336;2023-04-24T01:39:22;11.80;;;8.52;;
23519;SDS011;11936;50.820;4.336;2023-04-24T01:41:50;19.37;;;9.03;;
23519;SDS011;11936;50.820;4.336;2023-04-24T01:44:17;13.85;;;8.63;;
23519;SDS011;11936;50.820;4.336;2023-04-24T01:46:43;14.35;;;9.02;;
23519;SDS011;11936;50.820;4.336;2023-04-24T01:49:09;12.00;;;8.95;;
23519;SDS011;11936;50.820;4.336;2023-04-24T01:51:35;17.45;;;9.43;;
23519;SDS011;11936;50.820;4.336;2023-04-24T01:54:00;18.23;;;10.88;;
23519;SDS011;11936;50.820;4.336;2023-04-24T01:56:27;17.27;;;10.48;;
23519;SDS011;11936;50.820;4.336;2023-04-24T02:01:21;15.68;;;9.27;;
23519;SDS011;11936;50.820;4.336;2023-04-24T02:03:48;15.68;;;9.88;;
23519;SDS011;11936;50.820;4.336;2023-04-24T02:06:14;15.57;;;9.95;;
23519;SDS011;11936;50.820;4.336;2023-04-24T02:08:39;14.80;;;10.43;;
23519;SDS011;11936;50.820;4.336;2023-04-24T02:11:05;17.88;;;10.85;;
23519;SDS011;11936;50.820;4.336;2023-04-24T02:13:31;13.88;;;11.07;;
23519;SDS011;11936;50.820;4.336;2023-04-24T02:15:58;18.05;;;11.15;;
23519;SDS011;11936;50.820;4.336;2023-04-24T02:18:23;13.88;;;10.45;;
23519;SDS011;11936;50.820;4.336;2023-04-24T02:20:49;18.58;;;10.95;;
23519;SDS011;11936;50.820;4.336;2023-04-24T02:23:15;14.77;;;9.98;;
23519;SDS011;11936;50.820;4.336;2023-04-24T02:25:41;15.88;;;11.00;;
23519;SDS011;11936;50.820;4.336;2023-04-24T02:28:06;15.07;;;9.63;;
23519;SDS011;11936;50.820;4.336;2023-04-24T02:30:32;14.85;;;9.57;;
23519;SDS011;11936;50.820;4.336;2023-04-24T02:32:58;15.93;;;10.13;;
23519;SDS011;11936;50.820;4.336;2023-04-24T02:35:23;15.65;;;9.60;;
23519;SDS011;11936;50.820;4.336;2023-04-24T02:37:49;15.82;;;9.60;;
23519;SDS011;11936;50.820;4.336;2023-04-24T02:40:15;14.32;;;10.27;;
23519;SDS011;11936;50.820;4.336;2023-04-24T02:42:40;13.18;;;9.48;;
23519;SDS011;11936;50.820;4.336;2023-04-24T02:45:06;16.10;;;9.45;;
23519;SDS011;11936;50.820;4.336;2023-04-24T02:47:32;14.13;;;10.00;;
23519;SDS011;11936;50.820;4.336;2023-04-24T02:49:58;15.80;;;9.55;;
23519;SDS011;11936;50.820;4.336;2023-04-24T02:52:23;13.85;;;8.85;;
23519;SDS011;11936;50.820;4.336;2023-04-24T02:54:49;14.85;;;9.00;;
23519;SDS011;11936;50.820;4.336;2023-04-24T02:57:15;17.75;;;10.27;;
23519;SDS011;11936;50.820;4.336;2023-04-24T02:59:40;12.63;;;8.63;;
23519;SDS011;11936;50.820;4.336;2023-04-24T03:02:06;14.00;;;8.93;;
23519;SDS011;11936;50.820;4.336;2023-04-24T03:04:32;16.50;;;8.98;;
23519;SDS011;11936;50.820;4.336;2023-04-24T03:06:57;11.93;;;8.95;;
23519;SDS011;11936;50.820;4.336;2023-04-24T03:09:24;15.40;;;8.70;;
23519;SDS011;11936;50.820;4.336;2023-04-24T03:11:50;11.32;;;7.30;;
23519;SDS011;11936;50.820;4.336;2023-04-24T03:14:15;16.55;;;7.57;;
23519;SDS011;11936;50.820;4.336;2023-04-24T03:16:41;9.82;;;7.57;;
23519;SDS011;11936;50.820;4.336;2023-04-24T03:19:07;15.05;;;6.88;;
23519;SDS011;11936;50.820;4.336;2023-04-24T03:21:33;13.88;;;7.60;;
23519;SDS011;11936;50.820;4.336;2023-04-24T03:24:00;15.82;;;7.38;;
23519;SDS011;11936;50.820;4.336;2023-04-24T03:26:26;10.30;;;7.45;;
23519;SDS011;11936;50.820;4.336;2023-04-24T03:28:51;9.13;;;6.90;;
23519;SDS011;11936;50.820;4.336;2023-04-24T03:31:17;11.68;;;7.22;;
23519;SDS011;11936;50.820;4.336;2023-04-24T03:33:44;13.75;;;8.13;;
23519;SDS011;11936;50.820;4.336;2023-04-24T03:36:09;9.98;;;6.93;;
23519;SDS011;11936;50.820;4.336;2023-04-24T03:38:35;8.13;;;6.32;;
23519;SDS011;11936;50.820;4.336;2023-04-24T03:41:01;8.63;;;6.78;;
23519;SDS011;11936;50.820;4.336;2023-04-24T03:43:26;11.80;;;6.43;;
23519;SDS011;11936;50.820;4.336;2023-04-24T03:45:52;9.45;;;6.32;;
23519;SDS011;11936;50.820;4.336;2023-04-24T03:48:18;15.88;;;6.13;;
23519;SDS011;11936;50.820;4.336;2023-04-24T03:50:43;11.35;;;6.85;;
23519;SDS011;11936;50.820;4.336;2023-04-24T03:53:09;7.25;;;5.88;;
23519;SDS011;11936;50.820;4.336;2023-04-24T03:55:35;8.05;;;5.20;;
23519;SDS011;11936;50.820;4.336;2023-04-24T03:58:00;7.65;;;5.85;;
23519;SDS011;11936;50.820;4.336;2023-04-24T04:00:26;6.25;;;4.97;;
23519;SDS011;11936;50.820;4.336;2023-04-24T04:02:52;8.95;;;6.38;;
23519;SDS011;11936;50.820;4.336;2023-04-24T04:05:18;9.32;;;6.05;;
23519;SDS011;11936;50.820;4.336;2023-04-24T04:07:44;8.40;;;5.60;;
23519;SDS011;11936;50.820;4.336;2023-04-24T04:10:10;7.88;;;5.32;;
23519;SDS011;11936;50.820;4.336;2023-04-24T04:12:37;7.95;;;4.97;;
23519;SDS011;11936;50.820;4.336;2023-04-24T04:15:02;5.97;;;5.15;;
23519;SDS011;11936;50.820;4.336;2023-04-24T04:17:29;7.38;;;4.82;;
23519;SDS011;11936;50.820;4.336;2023-04-24T04:19:55;7.03;;;4.90;;
23519;SDS011;11936;50.820;4.336;2023-04-24T04:22:21;7.32;;;4.55;;
23519;SDS011;11936;50.820;4.336;2023-04-24T04:24:47;6.63;;;4.50;;
23519;SDS011;11936;50.820;4.336;2023-04-24T04:27:12;8.63;;;4.63;;
23519;SDS011;11936;50.820;4.336;2023-04-24T04:29:38;5.53;;;4.60;;
23519;SDS011;11936;50.820;4.336;2023-04-24T04:32:05;6.68;;;4.20;;
23519;SDS011;11936;50.820;4.336;2023-04-24T04:34:31;7.63;;;4.43;;
23519;SDS011;11936;50.820;4.336;2023-04-24T04:36:58;8.15;;;4.43;;
23519;SDS011;11936;50.820;4.336;2023-04-24T04:41:53;6.35;;;4.88;;
23519;SDS011;11936;50.820;4.336;2023-04-24T04:44:19;5.80;;;4.20;;
23519;SDS011;11936;50.820;4.336;2023-04-24T04:46:45;7.13;;;5.32;;
23519;SDS011;11936;50.820;4.336;2023-04-24T04:49:11;8.70;;;5.80;;
23519;SDS011;11936;50.820;4.336;2023-04-24T04:51:36;10.75;;;6.43;;
23519;SDS011;11936;50.820;4.336;2023-04-24T04:54:02;13.23;;;7.20;;
23519;SDS011;11936;50.820;4.336;2023-04-24T04:56:27;11.02;;;7.25;;
23519;SDS011;11936;50.820;4.336;2023-04-24T04:58:53;11.73;;;7.10;;
23519;SDS011;11936;50.820;4.336;2023-04-24T05:01:20;14.55;;;7.28;;
23519;SDS011;11936;50.820;4.336;2023-04-24T05:03:48;12.30;;;8.07;;
23519;SDS011;11936;50.820;4.336;2023-04-24T05:06:13;13.63;;;8.05;;
23519;SDS011;11936;50.820;4.336;2023-04-24T05:08:39;13.93;;;7.65;;
23519;SDS011;11936;50.820;4.336;2023-04-24T05:11:04;11.18;;;8.15;;
23519;SDS011;11936;50.820;4.336;2023-04-24T05:13:31;14.82;;;8.70;;
23519;SDS011;11936;50.820;4.336;2023-04-24T05:15:57;15.60;;;8.48;;
23519;SDS011;11936;50.820;4.336;2023-04-24T05:18:23;10.80;;;8.30;;
23519;SDS011;11936;50.820;4.336;2023-04-24T05:20:48;14.85;;;9.27;;
23519;SDS011;11936;50.820;4.336;2023-04-24T05:23:14;15.40;;;9.13;;
23519;SDS011;11936;50.820;4.336;2023-04-24T05:25:40;17.80;;;9.43;;
23519;SDS011;11936;50.820;4.336;2023-04-24T05:28:09;16.33;;;8.32;;
23519;SDS011;11936;50.820;4.336;2023-04-24T05:30:34;16.40;;;9.50;;
23519;SDS011;11936;50.820;4.336;2023-04-24T05:33:00;13.27;;;9.40;;
23519;SDS011;11936;50.820;4.336;2023-04-24T05:35:26;14.07;;;9.15;;
23519;SDS011;11936;50.820;4.336;2023-04-24T05:37:51;12.93;;;8.95;;
23519;SDS011;11936;50.820;4.336;2023-04-24T05:40:17;16.65;;;9.93;;
23519;SDS011;11936;50.820;4.336;2023-04-24T05:42:43;15.23;;;9.80;;
23519;SDS011;11936;50.820;4.336;2023-04-24T05:45:08;19.60;;;9.65;;
23519;SDS011;11936;50.820;4.336;2023-04-24T05:47:39;14.15;;;9.70;;
23519;SDS011;11936;50.820;4.336;2023-04-24T05:50:05;18.85;;;8.88;;
23519;SDS011;11936;50.820;4.336;2023-04-24T05:52:31;13.23;;;8.85;;
23519;SDS011;11936;50.820;4.336;2023-04-24T05:54:57;16.17;;;9.48;;
23519;SDS011;11936;50.820;4.336;2023-04-24T05:57:24;19.35;;;8.93;;
23519;SDS011;11936;50.820;4.336;2023-04-24T05:59:50;16.02;;;10.38;;
23519;SDS011;11936;50.820;4.336;2023-04-24T06:02:16;17.25;;;9.05;;
23519;SDS011;11936;50.820;4.336;2023-04-24T06:04:42;19.23;;;9.38;;
23519;SDS011;11936;50.820;4.336;2023-04-24T06:07:10;17.70;;;9.63;;
23519;SDS011;11936;50.820;4.336;2023-04-24T06:09:36;15.65;;;9.02;;
23519;SDS011;11936;50.820;4.336;2023-04-24T06:12:01;16.42;;;9.50;;
23519;SDS011;11936;50.820;4.336;2023-04-24T06:14:33;13.10;;;8.07;;
23519;SDS011;11936;50.820;4.336;2023-04-24T06:16:59;17.02;;;9.65;;
23519;SDS011;11936;50.820;4.336;2023-04-24T06:19:25;18.83;;;10.02;;
23519;SDS011;11936;50.820;4.336;2023-04-24T06:21:50;15.40;;;9.60;;
23519;SDS011;11936;50.820;4.336;2023-04-24T06:24:16;18.20;;;9.77;;
23519;SDS011;11936;50.820;4.336;2023-04-24T06:26:42;18.88;;;11.10;;
23519;SDS011;11936;50.820;4.336;2023-04-24T06:29:07;20.13;;;10.75;;
23519;SDS011;11936;50.820;4.336;2023-04-24T06:31:33;19.33;;;11.63;;
23519;SDS011;11936;50.820;4.336;2023-04-24T06:34:07;20.13;;;11.10;;
23519;SDS011;11936;50.820;4.336;2023-04-24T06:36:33;17.48;;;10.55;;
23519;SDS011;11936;50.820;4.336;2023-04-24T06:39:00;24.05;;;11.77;;
23519;SDS011;11936;50.820;4.336;2023-04-24T06:41:26;22.30;;;11.02;;
23519;SDS011;11936;50.820;4.336;2023-04-24T06:43:53;23.70;;;12.23;;
23519;SDS011;11936;50.820;4.336;2023-04-24T06:46:19;24.95;;;13.48;;
23519;SDS011;11936;50.820;4.336;2023-04-24T06:48:48;21.25;;;11.50;;
23519;SDS011;11936;50.820;4.336;2023-04-24T06:51:14;25.05;;;12.32;;
23519;SDS011;11936;50.820;4.336;2023-04-24T06:53:40;23.35;;;12.93;;
23519;SDS011;11936;50.820;4.336;2023-04-24T06:56:06;22.55;;;12.32;;
23519;SDS011;11936;50.820;4.336;2023-04-24T06:58:32;24.10;;;12.43;;
23519;SDS011;11936;50.820;4.336;2023-04-24T07:00:57;27.42;;;12.77;;
23519;SDS011;11936;50.820;4.336;2023-04-24T07:03:23;21.48;;;12.00;;
23519;SDS011;11936;50.820;4.336;2023-04-24T07:05:48;21.50;;;12.75;;
23519;SDS011;11936;50.820;4.336;2023-04-24T07:08:14;21.05;;;12.32;;
23519;SDS011;11936;50.820;4.336;2023-04-24T07:10:42;20.10;;;13.27;;
23519;SDS011;11936;50.820;4.336;2023-04-24T07:13:09;25.73;;;12.32;;
23519;SDS011;11936;50.820;4.336;2023-04-24T07:15:34;24.30;;;14.00;;
23519;SDS011;11936;50.820;4.336;2023-04-24T07:18:00;22.00;;;13.23;;
23519;SDS011;11936;50.820;4.336;2023-04-24T07:20:26;24.33;;;11.45;;
23519;SDS011;11936;50.820;4.336;2023-04-24T07:22:52;18.02;;;10.80;;
23519;SDS011;11936;50.820;4.336;2023-04-24T07:25:19;28.63;;;12.20;;
23519;SDS011;11936;50.820;4.336;2023-04-24T07:27:44;19.23;;;10.90;;
23519;SDS011;11936;50.820;4.336;2023-04-24T07:30:10;18.88;;;11.90;;
23519;SDS011;11936;50.820;4.336;2023-04-24T07:32:36;24.58;;;11.52;;
23519;SDS011;11936;50.820;4.336;2023-04-24T07:35:02;14.85;;;10.98;;
23519;SDS011;11936;50.820;4.336;2023-04-24T07:37:28;20.33;;;11.48;;
23519;SDS011;11936;50.820;4.336;2023-04-24T07:39:54;20.30;;;11.95;;
23519;SDS011;11936;50.820;4.336;2023-04-24T07:42:20;23.27;;;12.68;;
23519;SDS011;11936;50.820;4.336;2023-04-24T07:44:46;17.60;;;11.23;;
23519;SDS011;11936;50.820;4.336;2023-04-24T07:47:12;28.50;;;12.52;;
23519;SDS011;11936;50.820;4.336;2023-04-24T07:49:43;23.80;;;12.95;;
23519;SDS011;11936;50.820;4.336;2023-04-24T07:52:12;22.42;;;12.77;;
23519;SDS011;11936;50.820;4.336;2023-04-24T07:57:03;24.35;;;11.43;;
23519;SDS011;11936;50.820;4.336;2023-04-24T07:59:31;13.65;;;9.65;;
23519;SDS011;11936;50.820;4.336;2023-04-24T08:01:56;18.50;;;9.73;;
23519;SDS011;11936;50.820;4.336;2023-04-24T08:04:22;16.33;;;9.35;;
23519;SDS011;11936;50.820;4.336;2023-04-24T08:06:48;15.60;;;9.70;;
23519;SDS011;11936;50.820;4.336;2023-04-24T08:09:13;21.95;;;10.15;;
23519;SDS011;11936;50.820;4.336;2023-04-24T08:11:39;16.48;;;8.73;;
23519;SDS011;11936;50.820;4.336;2023-04-24T08:14:05;17.15;;;9.43;;
23519;SDS011;11936;50.820;4.336;2023-04-24T08:16:32;15.18;;;8.30;;
23519;SDS011;11936;50.820;4.336;2023-04-24T08:18:58;19.75;;;7.95;;
23519;SDS011;11936;50.820;4.336;2023-04-24T08:21:24;16.95;;;7.03;;
23519;SDS011;11936;50.820;4.336;2023-04-24T08:23:52;16.63;;;7.57;;
23519;SDS011;11936;50.820;4.336;2023-04-24T08:26:17;15.90;;;7.43;;
23519;SDS011;11936;50.820;4.336;2023-04-24T08:28:43;14.45;;;7.40;;
23519;SDS011;11936;50.820;4.336;2023-04-24T08:31:09;16.33;;;8.07;;
23519;SDS011;11936;50.820;4.336;2023-04-24T08:33:38;19.75;;;7.90;;
23519;SDS011;11936;50.820;4.336;2023-04-24T08:36:06;17.17;;;7.00;;
23519;SDS011;11936;50.820;4.336;2023-04-24T08:38:33;19.55;;;6.97;;
23519;SDS011;11936;50.820;4.336;2023-04-24T08:40:59;17.73;;;7.25;;
23519;SDS011;11936;50.820;4.336;2023-04-24T08:43:26;17.30;;;7.40;;
23519;SDS011;11936;50.820;4.336;2023-04-24T08:45:56;15.82;;;7.03;;
23519;SDS011;11936;50.820;4.336;2023-04-24T08:48:22;14.15;;;6.90;;
23519;SDS011;11936;50.820;4.336;2023-04-24T08:50:50;11.55;;;5.28;;
23519;SDS011;11936;50.820;4.336;2023-04-24T08:53:16;12.05;;;4.93;;
23519;SDS011;11936;50.820;4.336;2023-04-24T08:55:43;12.45;;;5.82;;
23519;SDS011;11936;50.820;4.336;2023-04-24T08:58:12;13.02;;;5.18;;
23519;SDS011;11936;50.820;4.336;2023-04-24T09:00:39;16.13;;;6.05;;
23519;SDS011;11936;50.820;4.336;2023-04-24T09:03:09;12.45;;;5.70;;
23519;SDS011;11936;50.820;4.336;2023-04-24T09:05:35;9.48;;;5.32;;
23519;SDS011;11936;50.820;4.336;2023-04-24T09:08:01;14.90;;;5.47;;
23519;SDS011;11936;50.820;4.336;2023-04-24T09:10:28;12.18;;;5.63;;
23519;SDS011;11936;50.820;4.336;2023-04-24T09:12:55;15.50;;;5.32;;
23519;SDS011;11936;50.820;4.336;2023-04-24T09:15:23;10.55;;;5.53;;
23519;SDS011;11936;50.820;4.336;2023-04-24T09:17:49;7.72;;;4.50;;
23519;SDS011;11936;50.820;4.336;2023-04-24T09:20:15;8.13;;;4.22;;
23519;SDS011;11936;50.820;4.336;2023-04-24T09:22:44;9.85;;;5.05;;
23519;SDS011;11936;50.820;4.336;2023-04-24T09:25:10;17.23;;;5.00;;
23519;SDS011;11936;50.820;4.336;2023-04-24T09:27:40;13.55;;;4.90;;
23519;SDS011;11936;50.820;4.336;2023-04-24T09:30:09;11.65;;;4.78;;
23519;SDS011;11936;50.820;4.336;2023-04-24T09:32:35;19.98;;;5.72;;
23519;SDS011;11936;50.820;4.336;2023-04-24T09:35:04;10.63;;;3.90;;
23519;SDS011;11936;50.820;4.336;2023-04-24T09:37:35;7.35;;;3.70;;
23519;SDS011;11936;50.820;4.336;2023-04-24T09:40:09;8.93;;;3.88;;
23519;SDS011;11936;50.820;4.336;2023-04-24T09:43:03;13.70;;;4.75;;
23519;SDS011;11936;50.820;4.336;2023-04-24T09:45:28;12.35;;;4.70;;
23519;SDS011;11936;50.820;4.336;2023-04-24T09:48:00;15.70;;;5.30;;
23519;SDS011;11936;50.820;4.336;2023-04-24T09:50:26;7.80;;;4.13;;
23519;SDS011;11936;50.820;4.336;2023-04-24T09:52:56;7.50;;;4.75;;
23519;SDS011;11936;50.820;4.336;2023-04-24T09:55:33;9.23;;;5.18;;
23519;SDS011;11936;50.820;4.336;2023-04-24T09:58:07;11.50;;;5.50;;
23519;SDS011;11936;50.820;4.336;2023-04-24T10:00:33;8.40;;;4.53;;
23519;SDS011;11936;50.820;4.336;2023-04-24T10:02:59;9.48;;;4.00;;
23519;SDS011;11936;50.820;4.336;2023-04-24T10:05:30;7.35;;;3.72;;
23519;SDS011;11936;50.820;4.336;2023-04-24T10:08:09;10.32;;;3.90;;
23519;SDS011;11936;50.820;4.336;2023-04-24T10:10:41;6.80;;;3.63;;
23519;SDS011;11936;50.820;4.336;2023-04-24T10:13:09;7.60;;;3.88;;
23519;SDS011;11936;50.820;4.336;2023-04-24T10:15:36;8.98;;;4.20;;
23519;SDS011;11936;50.820;4.336;2023-04-24T10:18:04;10.15;;;4.55;;
23519;SDS011;11936;50.820;4.336;2023-04-24T10:20:31;11.70;;;5.32;;
23519;SDS011;11936;50.820;4.336;2023-04-24T10:22:58;14.30;;;4.85;;
23519;SDS011;11936;50.820;4.336;2023-04-24T10:25:29;10.35;;;4.68;;
23519;SDS011;11936;50.820;4.336;2023-04-24T10:27:57;11.60;;;4.70;;
23519;SDS011;11936;50.820;4.336;2023-04-24T10:30:25;7.57;;;4.53;;
23519;SDS011;11936;50.820;4.336;2023-04-24T10:32:52;7.50;;;4.72;;
23519;SDS011;11936;50.820;4.336;2023-04-24T10:35:17;14.07;;;5.30;;
23519;SDS011;11936;50.820;4.336;2023-04-24T10:37:50;12.18;;;6.20;;
23519;SDS011;11936;50.820;4.336;2023-04-24T10:40:32;17.48;;;5.15;;
23519;SDS011;11936;50.820;4.336;2023-04-24T10:42:59;9.80;;;5.10;;
23519;SDS011;11936;50.820;4.336;2023-04-24T10:45:31;12.68;;;4.88;;
23519;SDS011;11936;50.820;4.336;2023-04-24T10:48:14;10.40;;;5.15;;
23519;SDS011;11936;50.820;4.336;2023-04-24T10:50:45;11.10;;;5.28;;
23519;SDS011;11936;50.820;4.336;2023-04-24T10:53:22;10.10;;;5.05;;
23519;SDS011;11936;50.820;4.336;2023-04-24T10:56:07;8.27;;;5.10;;
23519;SDS011;11936;50.820;4.336;2023-04-24T10:58:40;9.50;;;4.93;;
23519;SDS011;11936;50.820;4.336;2023-04-24T11:01:29;13.00;;;5.32;;
23519;SDS011;11936;50.820;4.336;2023-04-24T11:04:02;17.75;;;6.65;;
23519;SDS011;11936;50.820;4.336;2023-04-24T11:06:35;12.32;;;5.55;;
23519;SDS011;11936;50.820;4.336;2023-04-24T11:09:04;10.63;;;5.07;;
23519;SDS011;11936;50.820;4.336;2023-04-24T11:11:37;11.73;;;5.10;;
23519;SDS011;11936;50.820;4.336;2023-04-24T11:14:09;7.60;;;4.55;;
23519;SDS011;11936;50.820;4.336;2023-04-24T11:16:36;10.27;;;4.50;;
23519;SDS011;11936;50.820;4.336;2023-04-24T11:26:59;9.95;;;5.13;;
23519;SDS011;11936;50.820;4.336;2023-04-24T11:34:50;11.75;;;5.45;;
23519;SDS011;11936;50.820;4.336;2023-04-24T11:37:18;13.23;;;5.68;;
23519;SDS011;11936;50.820;4.336;2023-04-24T11:39:43;15.00;;;6.03;;
23519;SDS011;11936;50.820;4.336;2023-04-24T11:42:09;11.20;;;5.55;;
23519;SDS011;11936;50.820;4.336;2023-04-24T11:44:35;10.77;;;6.32;;
23519;SDS011;11936;50.820;4.336;2023-04-24T11:47:08;9.00;;;5.88;;
23519;SDS011;11936;50.820;4.336;2023-04-24T11:49:33;13.48;;;6.40;;
23519;SDS011;11936;50.820;4.336;2023-04-24T11:52:01;14.13;;;6.70;;
23519;SDS011;11936;50.820;4.336;2023-04-24T11:54:30;11.57;;;6.20;;
23519;SDS011;11936;50.820;4.336;2023-04-24T11:56:56;9.52;;;5.85;;
23519;SDS011;11936;50.820;4.336;2023-04-24T11:59:22;11.05;;;6.47;;
23519;SDS011;11936;50.820;4.336;2023-04-24T12:01:48;9.85;;;6.72;;
23519;SDS011;11936;50.820;4.336;2023-04-24T12:04:15;13.57;;;6.15;;
23519;SDS011;11936;50.820;4.336;2023-04-24T12:07:03;10.40;;;6.05;;
23519;SDS011;11936;50.820;4.336;2023-04-24T12:09:40;9.60;;;6.30;;
23519;SDS011;11936;50.820;4.336;2023-04-24T12:12:07;9.53;;;5.80;;
23519;SDS011;11936;50.820;4.336;2023-04-24T12:14:41;12.73;;;6.90;;
23519;SDS011;11936;50.820;4.336;2023-04-24T12:17:07;10.65;;;6.15;;
23519;SDS011;11936;50.820;4.336;2023-04-24T12:19:33;11.60;;;5.80;;
23519;SDS011;11936;50.820;4.336;2023-04-24T12:21:59;12.25;;;6.28;;
23519;SDS011;11936;50.820;4.336;2023-04-24T12:24:26;11.02;;;5.93;;
23519;SDS011;11936;50.820;4.336;2023-04-24T12:26:52;8.60;;;5.90;;
23519;SDS011;11936;50.820;4.336;2023-04-24T12:29:21;10.25;;;6.20;;
23519;SDS011;11936;50.820;4.336;2023-04-24T12:31:48;9.63;;;5.95;;
23519;SDS011;11936;50.820;4.336;2023-04-24T12:34:19;10.88;;;6.55;;
23519;SDS011;11936;50.820;4.336;2023-04-24T12:36:46;8.85;;;5.82;;
23519;SDS011;11936;50.820;4.336;2023-04-24T12:39:19;12.77;;;6.30;;
23519;SDS011;11936;50.820;4.336;2023-04-24T12:41:49;10.13;;;5.97;;
23519;SDS011;11936;50.820;4.336;2023-04-24T12:44:16;7.53;;;5.80;;
23519;SDS011;11936;50.820;4.336;2023-04-24T12:46:43;10.75;;;5.50;;
23519;SDS011;11936;50.820;4.336;2023-04-24T12:49:09;9.73;;;5.10;;
23519;SDS011;11936;50.820;4.336;2023-04-24T12:51:35;10.15;;;4.93;;
23519;SDS011;11936;50.820;4.336;2023-04-24T12:54:00;7.18;;;4.82;;
23519;SDS011;11936;50.820;4.336;2023-04-24T12:56:26;7.28;;;4.95;;
23519;SDS011;11936;50.820;4.336;2023-04-24T12:58:52;11.27;;;5.60;;
23519;SDS011;11936;50.820;4.336;2023-04-24T13:01:17;10.38;;;5.25;;
23519;SDS011;11936;50.820;4.336;2023-04-24T13:03:43;9.40;;;4.60;;
23519;SDS011;11936;50.820;4.336;2023-04-24T13:06:08;6.10;;;4.32;;
23519;SDS011;11936;50.820;4.336;2023-04-24T13:08:34;12.00;;;4.68;;
23519;SDS011;11936;50.820;4.336;2023-04-24T13:11:00;11.38;;;4.30;;
23519;SDS011;11936;50.820;4.336;2023-04-24T13:13:25;8.98;;;4.53;;
23519;SDS011;11936;50.820;4.336;2023-04-24T13:15:51;9.20;;;4.15;;
23519;SDS011;11936;50.820;4.336;2023-04-24T13:18:17;8.35;;;4.32;;
23519;SDS011;11936;50.820;4.336;2023-04-24T13:20:42;8.13;;;3.78;;
23519;SDS011;11936;50.820;4.336;2023-04-24T13:23:09;7.60;;;3.63;;
23519;SDS011;11936;50.820;4.336;2023-04-24T13:25:35;6.50;;;3.58;;
23519;SDS011;11936;50.820;4.336;2023-04-24T13:30:29;10.02;;;4.00;;
23519;SDS011;11936;50.820;4.336;2023-04-24T13:32:56;5.55;;;2.88;;
23519;SDS011;11936;50.820;4.336;2023-04-24T13:35:21;6.75;;;3.60;;
23519;SDS011;11936;50.820;4.336;2023-04-24T13:37:47;8.85;;;3.63;;
23519;SDS011;11936;50.820;4.336;2023-04-24T13:40:13;9.68;;;4.25;;
23519;SDS011;11936;50.820;4.336;2023-04-24T13:42:39;8.07;;;3.78;;
23519;SDS011;11936;50.820;4.336;2023-04-24T13:45:05;5.88;;;3.55;;
23519;SDS011;11936;50.820;4.336;2023-04-24T13:47:31;5.25;;;2.92;;
23519;SDS011;11936;50.820;4.336;2023-04-24T13:49:57;7.55;;;3.88;;
23519;SDS011;11936;50.820;4.336;2023-04-24T13:52:22;6.57;;;3.05;;
23519;SDS011;11936;50.820;4.336;2023-04-24T13:54:48;6.85;;;3.28;;
23519;SDS011;11936;50.820;4.336;2023-04-24T13:57:14;11.18;;;4.03;;
23519;SDS011;11936;50.820;4.336;2023-04-24T13:59:40;5.35;;;3.00;;
23519;SDS011;11936;50.820;4.336;2023-04-24T14:02:06;4.80;;;2.42;;
23519;SDS011;11936;50.820;4.336;2023-04-24T14:04:31;6.75;;;3.05;;
23519;SDS011;11936;50.820;4.336;2023-04-24T14:06:57;4.50;;;2.97;;
23519;SDS011;11936;50.820;4.336;2023-04-24T14:09:23;6.85;;;2.70;;
23519;SDS011;11936;50.820;4.336;2023-04-24T14:11:48;5.32;;;2.65;;
23519;SDS011;11936;50.820;4.336;2023-04-24T14:14:14;5.38;;;2.95;;
23519;SDS011;11936;50.820;4.336;2023-04-24T14:16:40;8.18;;;3.03;;
23519;SDS011;11936;50.820;4.336;2023-04-24T14:19:05;4.32;;;2.35;;
23519;SDS011;11936;50.820;4.336;2023-04-24T14:21:31;5.28;;;2.10;;
23519;SDS011;11936;50.820;4.336;2023-04-24T14:23:57;9.23;;;2.10;;
23519;SDS011;11936;50.820;4.336;2023-04-24T14:26:23;5.57;;;2.25;;
23519;SDS011;11936;50.820;4.336;2023-04-24T14:28:50;4.45;;;2.20;;
23519;SDS011;11936;50.820;4.336;2023-04-24T14:31:15;4.00;;;2.13;;
23519;SDS011;11936;50.820;4.336;2023-04-24T14:33:41;4.95;;;2.35;;
23519;SDS011;11936;50.820;4.336;2023-04-24T14:36:07;6.15;;;2.25;;
23519;SDS011;11936;50.820;4.336;2023-04-24T14:38:33;5.00;;;2.10;;
23519;SDS011;11936;50.820;4.336;2023-04-24T14:40:59;4.35;;;2.10;;
23519;SDS011;11936;50.820;4.336;2023-04-24T14:43:26;3.70;;;1.95;;
23519;SDS011;11936;50.820;4.336;2023-04-24T14:45:52;3.50;;;1.90;;
23519;SDS011;11936;50.820;4.336;2023-04-24T14:48:17;2.83;;;2.00;;
23519;SDS011;11936;50.820;4.336;2023-04-24T14:50:43;3.13;;;1.90;;
23519;SDS011;11936;50.820;4.336;2023-04-24T14:53:10;4.53;;;2.38;;
23519;SDS011;11936;50.820;4.336;2023-04-24T14:55:35;5.30;;;2.00;;
23519;SDS011;11936;50.820;4.336;2023-04-24T14:58:02;3.78;;;2.17;;